sensor_id;sensor_type;location;lat;lon;timestamp;P1;durP1;ratioP1;P2;durP2;ratioP2
39772;SDS011;25451;51.960;6.250;2022-07-17T00:02:13;4.73;;;1.40;;
39772;SDS011;25451;51.960;6.250;2022-07-17T00:04:38;5.57;;;1.40;;
39772;SDS011;25451;51.960;6.250;2022-07-17T00:07:04;4.63;;;1.30;;
39772;SDS011;25451;51.960;6.250;2022-07-17T00:09:29;3.57;;;1.30;;
39772;SDS011;25451;51.960;6.250;2022-07-17T00:11:55;6.37;;;1.40;;
39772;SDS011;25451;51.960;6.250;2022-07-17T00:14:20;5.77;;;1.50;;
39772;SDS011;25451;51.960;6.250;2022-07-17T00:16:45;5.67;;;1.50;;
39772;SDS011;25451;51.960;6.250;2022-07-17T00:19:11;3.63;;;1.20;;
39772;SDS011;25451;51.960;6.250;2022-07-17T00:21:36;4.83;;;1.20;;
39772;SDS011;25451;51.960;6.250;2022-07-17T00:24:01;3.30;;;1.20;;
39772;SDS011;25451;51.960;6.250;2022-07-17T00:26:26;4.77;;;1.40;;
39772;SDS011;25451;51.960;6.250;2022-07-17T00:28:52;4.13;;;1.33;;
39772;SDS011;25451;51.960;6.250;2022-07-17T00:31:17;3.87;;;1.27;;
39772;SDS011;25451;51.960;6.250;2022-07-17T00:33:42;4.77;;;1.40;;
39772;SDS011;25451;51.960;6.250;2022-07-17T00:36:08;4.43;;;1.17;;
39772;SDS011;25451;51.960;6.250;2022-07-17T00:38:33;3.13;;;1.30;;
39772;SDS011;25451;51.960;6.250;2022-07-17T00:40:59;4.70;;;1.20;;
39772;SDS011;25451;51.960;6.250;2022-07-17T00:43:24;4.95;;;1.55;;
39772;SDS011;25451;51.960;6.250;2022-07-17T00:45:57;4.30;;;1.40;;
39772;SDS011;25451;51.960;6.250;2022-07-17T00:48:27;5.15;;;1.50;;
39772;SDS011;25451;51.960;6.250;2022-07-17T00:50:53;2.97;;;1.23;;
39772;SDS011;25451;51.960;6.250;2022-07-17T00:53:19;5.13;;;1.50;;
39772;SDS011;25451;51.960;6.250;2022-07-17T00:55:45;3.80;;;1.70;;
39772;SDS011;25451;51.960;6.250;2022-07-17T00:58:17;3.63;;;1.77;;
39772;SDS011;25451;51.960;6.250;2022-07-17T01:00:45;4.13;;;1.70;;
39772;SDS011;25451;51.960;6.250;2022-07-17T01:03:10;4.07;;;1.88;;
39772;SDS011;25451;51.960;6.250;2022-07-17T01:05:36;3.87;;;1.40;;
39772;SDS011;25451;51.960;6.250;2022-07-17T01:08:01;3.63;;;1.50;;
39772;SDS011;25451;51.960;6.250;2022-07-17T01:10:27;4.10;;;1.60;;
39772;SDS011;25451;51.960;6.250;2022-07-17T01:12:52;4.25;;;1.70;;
39772;SDS011;25451;51.960;6.250;2022-07-17T01:15:17;6.43;;;1.60;;
39772;SDS011;25451;51.960;6.250;2022-07-17T01:17:43;3.70;;;1.50;;
39772;SDS011;25451;51.960;6.250;2022-07-17T01:20:09;4.95;;;1.50;;
39772;SDS011;25451;51.960;6.250;2022-07-17T01:22:42;5.00;;;1.50;;
39772;SDS011;25451;51.960;6.250;2022-07-17T01:25:09;3.83;;;1.40;;
39772;SDS011;25451;51.960;6.250;2022-07-17T01:27:35;3.28;;;1.42;;
39772;SDS011;25451;51.960;6.250;2022-07-17T01:30:01;4.20;;;1.17;;
39772;SDS011;25451;51.960;6.250;2022-07-17T01:32:35;5.23;;;1.47;;
39772;SDS011;25451;51.960;6.250;2022-07-17T01:35:03;2.75;;;1.20;;
39772;SDS011;25451;51.960;6.250;2022-07-17T01:37:29;6.93;;;1.23;;
39772;SDS011;25451;51.960;6.250;2022-07-17T01:39:55;2.67;;;1.30;;
39772;SDS011;25451;51.960;6.250;2022-07-17T01:42:21;3.40;;;1.40;;
39772;SDS011;25451;51.960;6.250;2022-07-17T01:44:48;2.97;;;1.10;;
39772;SDS011;25451;51.960;6.250;2022-07-17T01:47:14;5.05;;;1.10;;
39772;SDS011;25451;51.960;6.250;2022-07-17T01:49:50;2.63;;;1.10;;
39772;SDS011;25451;51.960;6.250;2022-07-17T01:52:21;2.70;;;1.13;;
39772;SDS011;25451;51.960;6.250;2022-07-17T01:54:48;2.97;;;1.10;;
39772;SDS011;25451;51.960;6.250;2022-07-17T01:57:14;5.22;;;1.30;;
39772;SDS011;25451;51.960;6.250;2022-07-17T01:59:39;3.00;;;1.10;;
39772;SDS011;25451;51.960;6.250;2022-07-17T02:02:06;6.10;;;1.27;;
39772;SDS011;25451;51.960;6.250;2022-07-17T02:04:32;3.35;;;1.30;;
39772;SDS011;25451;51.960;6.250;2022-07-17T02:07:03;3.23;;;1.37;;
39772;SDS011;25451;51.960;6.250;2022-07-17T02:09:29;6.00;;;1.48;;
39772;SDS011;25451;51.960;6.250;2022-07-17T02:11:55;6.07;;;1.50;;
39772;SDS011;25451;51.960;6.250;2022-07-17T02:14:20;7.27;;;1.50;;
39772;SDS011;25451;51.960;6.250;2022-07-17T02:16:46;3.97;;;1.20;;
39772;SDS011;25451;51.960;6.250;2022-07-17T02:19:11;3.38;;;1.33;;
39772;SDS011;25451;51.960;6.250;2022-07-17T02:21:37;5.33;;;1.27;;
39772;SDS011;25451;51.960;6.250;2022-07-17T02:24:02;3.67;;;1.40;;
39772;SDS011;25451;51.960;6.250;2022-07-17T02:26:27;4.57;;;1.40;;
39772;SDS011;25451;51.960;6.250;2022-07-17T02:28:53;3.17;;;1.20;;
39772;SDS011;25451;51.960;6.250;2022-07-17T02:31:19;4.97;;;1.48;;
39772;SDS011;25451;51.960;6.250;2022-07-17T02:33:44;5.33;;;1.37;;
39772;SDS011;25451;51.960;6.250;2022-07-17T02:36:10;4.23;;;1.20;;
39772;SDS011;25451;51.960;6.250;2022-07-17T02:38:35;4.93;;;1.47;;
39772;SDS011;25451;51.960;6.250;2022-07-17T02:41:00;3.07;;;1.20;;
39772;SDS011;25451;51.960;6.250;2022-07-17T02:43:25;3.30;;;1.17;;
39772;SDS011;25451;51.960;6.250;2022-07-17T02:45:51;5.33;;;1.30;;
39772;SDS011;25451;51.960;6.250;2022-07-17T02:48:16;3.20;;;1.27;;
39772;SDS011;25451;51.960;6.250;2022-07-17T02:50:41;3.40;;;1.20;;
39772;SDS011;25451;51.960;6.250;2022-07-17T02:53:07;5.87;;;1.40;;
39772;SDS011;25451;51.960;6.250;2022-07-17T02:55:32;2.90;;;1.30;;
39772;SDS011;25451;51.960;6.250;2022-07-17T02:57:57;4.33;;;1.30;;
39772;SDS011;25451;51.960;6.250;2022-07-17T03:00:23;2.92;;;1.20;;
39772;SDS011;25451;51.960;6.250;2022-07-17T03:02:49;2.43;;;1.20;;
39772;SDS011;25451;51.960;6.250;2022-07-17T03:05:15;3.63;;;1.33;;
39772;SDS011;25451;51.960;6.250;2022-07-17T03:07:41;3.05;;;1.30;;
39772;SDS011;25451;51.960;6.250;2022-07-17T03:10:09;3.35;;;1.30;;
39772;SDS011;25451;51.960;6.250;2022-07-17T03:12:34;2.90;;;1.30;;
39772;SDS011;25451;51.960;6.250;2022-07-17T03:15:00;4.27;;;1.30;;
39772;SDS011;25451;51.960;6.250;2022-07-17T03:17:25;4.57;;;1.60;;
39772;SDS011;25451;51.960;6.250;2022-07-17T03:19:51;5.70;;;1.70;;
39772;SDS011;25451;51.960;6.250;2022-07-17T03:22:16;3.70;;;1.52;;
39772;SDS011;25451;51.960;6.250;2022-07-17T03:24:41;4.05;;;1.80;;
39772;SDS011;25451;51.960;6.250;2022-07-17T03:27:07;4.87;;;1.50;;
39772;SDS011;25451;51.960;6.250;2022-07-17T03:29:32;6.10;;;1.60;;
39772;SDS011;25451;51.960;6.250;2022-07-17T03:31:57;3.20;;;1.60;;
39772;SDS011;25451;51.960;6.250;2022-07-17T03:34:23;4.40;;;1.60;;
39772;SDS011;25451;51.960;6.250;2022-07-17T03:36:48;3.53;;;1.40;;
39772;SDS011;25451;51.960;6.250;2022-07-17T03:39:14;4.40;;;1.33;;
39772;SDS011;25451;51.960;6.250;2022-07-17T03:41:39;3.93;;;1.53;;
39772;SDS011;25451;51.960;6.250;2022-07-17T03:44:05;3.33;;;1.47;;
39772;SDS011;25451;51.960;6.250;2022-07-17T03:46:30;3.47;;;1.50;;
39772;SDS011;25451;51.960;6.250;2022-07-17T03:48:55;3.67;;;1.30;;
39772;SDS011;25451;51.960;6.250;2022-07-17T03:51:21;5.20;;;1.80;;
39772;SDS011;25451;51.960;6.250;2022-07-17T03:53:46;3.83;;;1.67;;
39772;SDS011;25451;51.960;6.250;2022-07-17T03:56:11;5.07;;;1.50;;
39772;SDS011;25451;51.960;6.250;2022-07-17T03:58:37;4.27;;;1.43;;
39772;SDS011;25451;51.960;6.250;2022-07-17T04:01:02;4.40;;;1.50;;
39772;SDS011;25451;51.960;6.250;2022-07-17T04:03:28;6.25;;;2.35;;
39772;SDS011;25451;51.960;6.250;2022-07-17T04:05:53;3.17;;;1.30;;
39772;SDS011;25451;51.960;6.250;2022-07-17T04:08:18;3.83;;;1.40;;
39772;SDS011;25451;51.960;6.250;2022-07-17T04:10:44;5.40;;;1.90;;
39772;SDS011;25451;51.960;6.250;2022-07-17T04:13:10;3.47;;;1.55;;
39772;SDS011;25451;51.960;6.250;2022-07-17T04:15:36;3.30;;;1.50;;
39772;SDS011;25451;51.960;6.250;2022-07-17T04:18:20;2.90;;;1.35;;
39772;SDS011;25451;51.960;6.250;2022-07-17T04:20:47;3.95;;;1.50;;
39772;SDS011;25451;51.960;6.250;2022-07-17T04:23:13;4.47;;;1.60;;
39772;SDS011;25451;51.960;6.250;2022-07-17T04:25:38;4.33;;;1.60;;
39772;SDS011;25451;51.960;6.250;2022-07-17T04:28:04;4.03;;;1.60;;
39772;SDS011;25451;51.960;6.250;2022-07-17T04:30:30;4.33;;;1.80;;
39772;SDS011;25451;51.960;6.250;2022-07-17T04:32:55;4.60;;;1.37;;
39772;SDS011;25451;51.960;6.250;2022-07-17T04:35:20;5.33;;;1.70;;
39772;SDS011;25451;51.960;6.250;2022-07-17T04:37:45;3.67;;;1.60;;
39772;SDS011;25451;51.960;6.250;2022-07-17T04:40:11;6.37;;;2.20;;
39772;SDS011;25451;51.960;6.250;2022-07-17T04:42:36;4.35;;;2.05;;
39772;SDS011;25451;51.960;6.250;2022-07-17T04:45:02;5.40;;;2.00;;
39772;SDS011;25451;51.960;6.250;2022-07-17T04:47:27;5.90;;;2.30;;
39772;SDS011;25451;51.960;6.250;2022-07-17T04:49:53;3.53;;;1.70;;
39772;SDS011;25451;51.960;6.250;2022-07-17T04:52:18;3.63;;;1.83;;
39772;SDS011;25451;51.960;6.250;2022-07-17T04:54:43;6.87;;;1.97;;
39772;SDS011;25451;51.960;6.250;2022-07-17T04:57:09;4.23;;;1.70;;
39772;SDS011;25451;51.960;6.250;2022-07-17T04:59:34;5.20;;;1.93;;
39772;SDS011;25451;51.960;6.250;2022-07-17T05:02:02;4.05;;;1.88;;
39772;SDS011;25451;51.960;6.250;2022-07-17T05:04:27;5.77;;;2.10;;
39772;SDS011;25451;51.960;6.250;2022-07-17T05:06:52;4.83;;;2.30;;
39772;SDS011;25451;51.960;6.250;2022-07-17T05:09:18;5.57;;;2.03;;
39772;SDS011;25451;51.960;6.250;2022-07-17T05:11:43;4.93;;;2.10;;
39772;SDS011;25451;51.960;6.250;2022-07-17T05:14:08;6.00;;;2.10;;
39772;SDS011;25451;51.960;6.250;2022-07-17T05:16:34;5.83;;;2.20;;
39772;SDS011;25451;51.960;6.250;2022-07-17T05:18:59;7.07;;;2.00;;
39772;SDS011;25451;51.960;6.250;2022-07-17T05:21:24;4.47;;;2.03;;
39772;SDS011;25451;51.960;6.250;2022-07-17T05:23:50;3.70;;;1.80;;
39772;SDS011;25451;51.960;6.250;2022-07-17T05:26:15;6.70;;;2.10;;
39772;SDS011;25451;51.960;6.250;2022-07-17T05:28:40;9.13;;;2.20;;
39772;SDS011;25451;51.960;6.250;2022-07-17T05:31:05;5.27;;;2.10;;
39772;SDS011;25451;51.960;6.250;2022-07-17T05:33:31;4.90;;;2.13;;
39772;SDS011;25451;51.960;6.250;2022-07-17T05:35:56;5.45;;;2.05;;
39772;SDS011;25451;51.960;6.250;2022-07-17T05:38:22;4.88;;;1.98;;
39772;SDS011;25451;51.960;6.250;2022-07-17T05:40:47;5.73;;;2.17;;
39772;SDS011;25451;51.960;6.250;2022-07-17T05:43:12;6.50;;;2.30;;
39772;SDS011;25451;51.960;6.250;2022-07-17T05:45:38;4.70;;;2.07;;
39772;SDS011;25451;51.960;6.250;2022-07-17T05:48:04;6.32;;;2.28;;
39772;SDS011;25451;51.960;6.250;2022-07-17T05:50:30;5.83;;;1.93;;
39772;SDS011;25451;51.960;6.250;2022-07-17T05:52:56;5.28;;;1.80;;
39772;SDS011;25451;51.960;6.250;2022-07-17T05:55:21;6.73;;;2.33;;
39772;SDS011;25451;51.960;6.250;2022-07-17T05:57:47;6.20;;;2.10;;
39772;SDS011;25451;51.960;6.250;2022-07-17T06:00:12;6.23;;;2.10;;
39772;SDS011;25451;51.960;6.250;2022-07-17T06:02:38;5.75;;;2.00;;
39772;SDS011;25451;51.960;6.250;2022-07-17T06:05:03;5.70;;;1.80;;
39772;SDS011;25451;51.960;6.250;2022-07-17T06:07:29;6.70;;;1.90;;
39772;SDS011;25451;51.960;6.250;2022-07-17T06:09:54;6.87;;;1.90;;
39772;SDS011;25451;51.960;6.250;2022-07-17T06:12:19;5.00;;;2.07;;
39772;SDS011;25451;51.960;6.250;2022-07-17T06:14:44;6.25;;;1.90;;
39772;SDS011;25451;51.960;6.250;2022-07-17T06:17:10;7.67;;;1.83;;
39772;SDS011;25451;51.960;6.250;2022-07-17T06:19:35;7.20;;;1.53;;
39772;SDS011;25451;51.960;6.250;2022-07-17T06:22:00;6.13;;;1.70;;
39772;SDS011;25451;51.960;6.250;2022-07-17T06:24:25;6.53;;;1.87;;
39772;SDS011;25451;51.960;6.250;2022-07-17T06:26:51;5.67;;;1.50;;
39772;SDS011;25451;51.960;6.250;2022-07-17T06:29:16;6.70;;;1.57;;
39772;SDS011;25451;51.960;6.250;2022-07-17T06:31:42;4.00;;;1.30;;
39772;SDS011;25451;51.960;6.250;2022-07-17T06:34:07;6.13;;;1.50;;
39772;SDS011;25451;51.960;6.250;2022-07-17T06:36:32;5.93;;;1.70;;
39772;SDS011;25451;51.960;6.250;2022-07-17T06:38:58;5.60;;;1.50;;
39772;SDS011;25451;51.960;6.250;2022-07-17T06:41:23;6.33;;;1.50;;
39772;SDS011;25451;51.960;6.250;2022-07-17T06:43:48;4.33;;;1.57;;
39772;SDS011;25451;51.960;6.250;2022-07-17T06:46:13;4.00;;;1.50;;
39772;SDS011;25451;51.960;6.250;2022-07-17T06:48:39;4.60;;;1.40;;
39772;SDS011;25451;51.960;6.250;2022-07-17T06:51:04;3.67;;;1.33;;
39772;SDS011;25451;51.960;6.250;2022-07-17T06:53:29;6.03;;;1.50;;
39772;SDS011;25451;51.960;6.250;2022-07-17T06:55:55;8.60;;;1.85;;
39772;SDS011;25451;51.960;6.250;2022-07-17T06:58:20;5.70;;;1.50;;
39772;SDS011;25451;51.960;6.250;2022-07-17T07:00:45;5.17;;;1.80;;
39772;SDS011;25451;51.960;6.250;2022-07-17T07:03:11;5.30;;;1.70;;
39772;SDS011;25451;51.960;6.250;2022-07-17T07:05:36;5.37;;;1.80;;
39772;SDS011;25451;51.960;6.250;2022-07-17T07:08:01;3.93;;;1.40;;
39772;SDS011;25451;51.960;6.250;2022-07-17T07:10:27;5.43;;;1.70;;
39772;SDS011;25451;51.960;6.250;2022-07-17T07:12:53;7.55;;;1.90;;
39772;SDS011;25451;51.960;6.250;2022-07-17T07:15:18;7.97;;;1.63;;
39772;SDS011;25451;51.960;6.250;2022-07-17T07:17:43;4.83;;;1.80;;
39772;SDS011;25451;51.960;6.250;2022-07-17T07:20:09;5.33;;;1.37;;
39772;SDS011;25451;51.960;6.250;2022-07-17T07:22:35;4.32;;;1.48;;
39772;SDS011;25451;51.960;6.250;2022-07-17T07:25:01;7.50;;;1.50;;
39772;SDS011;25451;51.960;6.250;2022-07-17T07:27:27;8.90;;;1.50;;
39772;SDS011;25451;51.960;6.250;2022-07-17T07:29:52;4.20;;;1.27;;
39772;SDS011;25451;51.960;6.250;2022-07-17T07:32:17;8.10;;;1.37;;
39772;SDS011;25451;51.960;6.250;2022-07-17T07:34:43;6.50;;;1.30;;
39772;SDS011;25451;51.960;6.250;2022-07-17T07:37:08;3.87;;;1.17;;
39772;SDS011;25451;51.960;6.250;2022-07-17T07:39:33;8.87;;;1.27;;
39772;SDS011;25451;51.960;6.250;2022-07-17T07:41:59;2.90;;;0.97;;
39772;SDS011;25451;51.960;6.250;2022-07-17T07:44:25;5.93;;;1.10;;
39772;SDS011;25451;51.960;6.250;2022-07-17T07:46:50;3.63;;;0.93;;
39772;SDS011;25451;51.960;6.250;2022-07-17T07:49:15;3.33;;;0.95;;
39772;SDS011;25451;51.960;6.250;2022-07-17T07:51:41;5.40;;;1.27;;
39772;SDS011;25451;51.960;6.250;2022-07-17T07:54:07;7.07;;;1.00;;
39772;SDS011;25451;51.960;6.250;2022-07-17T07:56:32;2.60;;;1.00;;
39772;SDS011;25451;51.960;6.250;2022-07-17T07:58:58;7.03;;;1.10;;
39772;SDS011;25451;51.960;6.250;2022-07-17T08:01:23;2.83;;;1.07;;
39772;SDS011;25451;51.960;6.250;2022-07-17T08:03:49;4.30;;;1.00;;
39772;SDS011;25451;51.960;6.250;2022-07-17T08:06:14;4.23;;;0.90;;
39772;SDS011;25451;51.960;6.250;2022-07-17T08:08:40;7.67;;;1.10;;
39772;SDS011;25451;51.960;6.250;2022-07-17T08:11:05;5.10;;;1.23;;
39772;SDS011;25451;51.960;6.250;2022-07-17T08:13:31;3.23;;;0.97;;
39772;SDS011;25451;51.960;6.250;2022-07-17T08:15:56;5.97;;;1.10;;
39772;SDS011;25451;51.960;6.250;2022-07-17T08:18:23;6.32;;;1.20;;
39772;SDS011;25451;51.960;6.250;2022-07-17T08:20:50;3.70;;;1.00;;
39772;SDS011;25451;51.960;6.250;2022-07-17T08:23:16;4.13;;;1.07;;
39772;SDS011;25451;51.960;6.250;2022-07-17T08:25:41;6.00;;;1.00;;
39772;SDS011;25451;51.960;6.250;2022-07-17T08:28:06;3.42;;;1.00;;
39772;SDS011;25451;51.960;6.250;2022-07-17T08:30:32;2.70;;;0.90;;
39772;SDS011;25451;51.960;6.250;2022-07-17T08:32:59;6.80;;;0.97;;
39772;SDS011;25451;51.960;6.250;2022-07-17T08:35:25;3.05;;;0.90;;
39772;SDS011;25451;51.960;6.250;2022-07-17T08:37:51;3.53;;;1.07;;
39772;SDS011;25451;51.960;6.250;2022-07-17T08:40:21;4.40;;;1.00;;
39772;SDS011;25451;51.960;6.250;2022-07-17T08:42:52;5.45;;;0.98;;
39772;SDS011;25451;51.960;6.250;2022-07-17T08:45:18;3.75;;;0.95;;
39772;SDS011;25451;51.960;6.250;2022-07-17T08:47:44;5.00;;;0.90;;
39772;SDS011;25451;51.960;6.250;2022-07-17T08:50:09;5.97;;;0.93;;
39772;SDS011;25451;51.960;6.250;2022-07-17T08:52:37;4.43;;;1.10;;
39772;SDS011;25451;51.960;6.250;2022-07-17T08:55:03;4.00;;;1.00;;
39772;SDS011;25451;51.960;6.250;2022-07-17T08:57:30;6.68;;;1.00;;
39772;SDS011;25451;51.960;6.250;2022-07-17T08:59:55;5.33;;;1.00;;
39772;SDS011;25451;51.960;6.250;2022-07-17T09:02:20;2.30;;;0.80;;
39772;SDS011;25451;51.960;6.250;2022-07-17T09:04:52;4.10;;;1.15;;
39772;SDS011;25451;51.960;6.250;2022-07-17T09:07:19;2.70;;;0.83;;
39772;SDS011;25451;51.960;6.250;2022-07-17T09:09:51;4.90;;;1.10;;
39772;SDS011;25451;51.960;6.250;2022-07-17T09:12:17;5.23;;;1.00;;
39772;SDS011;25451;51.960;6.250;2022-07-17T09:14:47;2.67;;;1.20;;
39772;SDS011;25451;51.960;6.250;2022-07-17T09:17:13;5.77;;;0.90;;
39772;SDS011;25451;51.960;6.250;2022-07-17T09:19:43;3.67;;;1.00;;
39772;SDS011;25451;51.960;6.250;2022-07-17T09:24:50;4.40;;;0.90;;
39772;SDS011;25451;51.960;6.250;2022-07-17T09:32:29;2.37;;;0.80;;
39772;SDS011;25451;51.960;6.250;2022-07-17T09:34:57;2.85;;;0.88;;
39772;SDS011;25451;51.960;6.250;2022-07-17T09:37:24;3.30;;;1.00;;
39772;SDS011;25451;51.960;6.250;2022-07-17T09:39:50;4.38;;;1.00;;
39772;SDS011;25451;51.960;6.250;2022-07-17T09:45:01;4.00;;;1.10;;
39772;SDS011;25451;51.960;6.250;2022-07-17T09:47:31;3.47;;;0.88;;
39772;SDS011;25451;51.960;6.250;2022-07-17T09:49:58;4.25;;;1.00;;
39772;SDS011;25451;51.960;6.250;2022-07-17T09:52:29;4.68;;;1.00;;
39772;SDS011;25451;51.960;6.250;2022-07-17T09:54:55;3.85;;;0.90;;
39772;SDS011;25451;51.960;6.250;2022-07-17T09:57:26;3.43;;;0.83;;
39772;SDS011;25451;51.960;6.250;2022-07-17T09:59:54;4.65;;;0.95;;
39772;SDS011;25451;51.960;6.250;2022-07-17T10:02:21;3.50;;;0.90;;
39772;SDS011;25451;51.960;6.250;2022-07-17T10:04:47;4.47;;;0.93;;
39772;SDS011;25451;51.960;6.250;2022-07-17T10:07:13;4.47;;;1.10;;
39772;SDS011;25451;51.960;6.250;2022-07-17T10:09:39;5.43;;;1.10;;
39772;SDS011;25451;51.960;6.250;2022-07-17T10:12:05;2.15;;;0.80;;
39772;SDS011;25451;51.960;6.250;2022-07-17T10:14:31;6.45;;;1.10;;
39772;SDS011;25451;51.960;6.250;2022-07-17T10:17:07;3.85;;;0.98;;
39772;SDS011;25451;51.960;6.250;2022-07-17T10:19:40;3.55;;;0.93;;
39772;SDS011;25451;51.960;6.250;2022-07-17T10:22:09;2.80;;;0.90;;
39772;SDS011;25451;51.960;6.250;2022-07-17T10:24:44;4.00;;;0.90;;
39772;SDS011;25451;51.960;6.250;2022-07-17T10:27:17;4.45;;;0.70;;
39772;SDS011;25451;51.960;6.250;2022-07-17T10:29:43;2.03;;;0.80;;
39772;SDS011;25451;51.960;6.250;2022-07-17T10:32:14;2.60;;;0.73;;
39772;SDS011;25451;51.960;6.250;2022-07-17T10:37:20;3.17;;;0.80;;
39772;SDS011;25451;51.960;6.250;2022-07-17T10:40:20;3.03;;;0.90;;
39772;SDS011;25451;51.960;6.250;2022-07-17T10:42:57;3.10;;;0.90;;
39772;SDS011;25451;51.960;6.250;2022-07-17T10:48:02;4.00;;;0.90;;
39772;SDS011;25451;51.960;6.250;2022-07-17T10:50:51;4.88;;;0.80;;
39772;SDS011;25451;51.960;6.250;2022-07-17T10:53:39;2.60;;;0.90;;
39772;SDS011;25451;51.960;6.250;2022-07-17T10:56:04;4.67;;;1.10;;
39772;SDS011;25451;51.960;6.250;2022-07-17T11:03:39;4.82;;;0.80;;
39772;SDS011;25451;51.960;6.250;2022-07-17T11:06:10;3.58;;;0.73;;
39772;SDS011;25451;51.960;6.250;2022-07-17T11:08:43;2.37;;;0.73;;
39772;SDS011;25451;51.960;6.250;2022-07-17T11:11:17;3.53;;;0.80;;
39772;SDS011;25451;51.960;6.250;2022-07-17T11:13:46;4.03;;;0.70;;
39772;SDS011;25451;51.960;6.250;2022-07-17T11:16:12;3.47;;;0.90;;
39772;SDS011;25451;51.960;6.250;2022-07-17T11:18:45;4.47;;;0.70;;
39772;SDS011;25451;51.960;6.250;2022-07-17T11:21:12;2.63;;;0.93;;
39772;SDS011;25451;51.960;6.250;2022-07-17T11:23:37;5.37;;;1.23;;
39772;SDS011;25451;51.960;6.250;2022-07-17T11:26:15;2.17;;;0.70;;
39772;SDS011;25451;51.960;6.250;2022-07-17T11:28:42;3.53;;;0.80;;
39772;SDS011;25451;51.960;6.250;2022-07-17T11:31:22;3.92;;;0.80;;
39772;SDS011;25451;51.960;6.250;2022-07-17T11:33:53;3.28;;;0.85;;
39772;SDS011;25451;51.960;6.250;2022-07-17T11:36:33;2.03;;;0.70;;
39772;SDS011;25451;51.960;6.250;2022-07-17T11:39:13;2.30;;;0.70;;
39772;SDS011;25451;51.960;6.250;2022-07-17T11:44:11;2.22;;;0.70;;
39772;SDS011;25451;51.960;6.250;2022-07-17T11:46:43;3.28;;;0.90;;
39772;SDS011;25451;51.960;6.250;2022-07-17T11:49:25;3.57;;;0.90;;
39772;SDS011;25451;51.960;6.250;2022-07-17T11:51:52;3.08;;;0.80;;
39772;SDS011;25451;51.960;6.250;2022-07-17T11:54:19;2.53;;;0.88;;
39772;SDS011;25451;51.960;6.250;2022-07-17T11:56:51;3.93;;;0.90;;
39772;SDS011;25451;51.960;6.250;2022-07-17T11:59:26;3.20;;;0.70;;
39772;SDS011;25451;51.960;6.250;2022-07-17T12:01:53;2.65;;;0.70;;
39772;SDS011;25451;51.960;6.250;2022-07-17T12:04:19;5.03;;;0.80;;
39772;SDS011;25451;51.960;6.250;2022-07-17T12:06:45;1.73;;;0.80;;
39772;SDS011;25451;51.960;6.250;2022-07-17T12:09:12;4.15;;;0.93;;
39772;SDS011;25451;51.960;6.250;2022-07-17T12:11:48;5.60;;;0.88;;
39772;SDS011;25451;51.960;6.250;2022-07-17T12:14:14;2.08;;;0.73;;
39772;SDS011;25451;51.960;6.250;2022-07-17T12:16:40;4.77;;;0.63;;
39772;SDS011;25451;51.960;6.250;2022-07-17T12:19:09;3.07;;;0.80;;
39772;SDS011;25451;51.960;6.250;2022-07-17T12:22:00;2.55;;;0.80;;
39772;SDS011;25451;51.960;6.250;2022-07-17T12:24:31;3.03;;;0.77;;
39772;SDS011;25451;51.960;6.250;2022-07-17T12:26:59;1.90;;;0.75;;
39772;SDS011;25451;51.960;6.250;2022-07-17T12:29:26;2.37;;;0.90;;
39772;SDS011;25451;51.960;6.250;2022-07-17T12:32:05;3.15;;;0.80;;
39772;SDS011;25451;51.960;6.250;2022-07-17T12:34:31;2.85;;;0.60;;
39772;SDS011;25451;51.960;6.250;2022-07-17T12:36:57;5.28;;;1.08;;
39772;SDS011;25451;51.960;6.250;2022-07-17T12:39:22;6.40;;;0.93;;
39772;SDS011;25451;51.960;6.250;2022-07-17T12:41:48;2.13;;;0.70;;
39772;SDS011;25451;51.960;6.250;2022-07-17T12:44:13;1.90;;;0.70;;
39772;SDS011;25451;51.960;6.250;2022-07-17T12:46:38;3.30;;;0.80;;
39772;SDS011;25451;51.960;6.250;2022-07-17T12:49:04;2.57;;;0.90;;
39772;SDS011;25451;51.960;6.250;2022-07-17T12:51:29;3.08;;;0.80;;
39772;SDS011;25451;51.960;6.250;2022-07-17T12:53:56;2.10;;;0.80;;
39772;SDS011;25451;51.960;6.250;2022-07-17T12:56:22;2.97;;;0.80;;
39772;SDS011;25451;51.960;6.250;2022-07-17T12:58:47;5.47;;;1.00;;
39772;SDS011;25451;51.960;6.250;2022-07-17T13:01:12;3.17;;;0.97;;
39772;SDS011;25451;51.960;6.250;2022-07-17T13:03:38;2.90;;;0.80;;
39772;SDS011;25451;51.960;6.250;2022-07-17T13:06:03;2.80;;;0.80;;
39772;SDS011;25451;51.960;6.250;2022-07-17T13:08:29;1.93;;;1.00;;
39772;SDS011;25451;51.960;6.250;2022-07-17T13:10:55;2.40;;;0.70;;
39772;SDS011;25451;51.960;6.250;2022-07-17T13:13:20;3.73;;;0.80;;
39772;SDS011;25451;51.960;6.250;2022-07-17T13:15:46;3.23;;;0.87;;
39772;SDS011;25451;51.960;6.250;2022-07-17T13:18:11;2.10;;;0.70;;
39772;SDS011;25451;51.960;6.250;2022-07-17T13:20:36;3.30;;;1.10;;
39772;SDS011;25451;51.960;6.250;2022-07-17T13:23:02;2.80;;;0.77;;
39772;SDS011;25451;51.960;6.250;2022-07-17T13:25:27;2.83;;;0.90;;
39772;SDS011;25451;51.960;6.250;2022-07-17T13:27:53;2.87;;;0.70;;
39772;SDS011;25451;51.960;6.250;2022-07-17T13:30:18;4.07;;;0.80;;
39772;SDS011;25451;51.960;6.250;2022-07-17T13:32:43;2.23;;;0.80;;
39772;SDS011;25451;51.960;6.250;2022-07-17T13:35:09;3.77;;;0.80;;
39772;SDS011;25451;51.960;6.250;2022-07-17T13:37:35;3.13;;;0.80;;
39772;SDS011;25451;51.960;6.250;2022-07-17T13:40:01;1.92;;;0.80;;
39772;SDS011;25451;51.960;6.250;2022-07-17T13:42:27;2.67;;;0.80;;
39772;SDS011;25451;51.960;6.250;2022-07-17T13:44:53;3.30;;;0.87;;
39772;SDS011;25451;51.960;6.250;2022-07-17T13:47:18;2.25;;;0.88;;
39772;SDS011;25451;51.960;6.250;2022-07-17T13:49:43;4.93;;;1.10;;
39772;SDS011;25451;51.960;6.250;2022-07-17T13:52:08;2.93;;;0.90;;
39772;SDS011;25451;51.960;6.250;2022-07-17T13:54:34;3.00;;;0.70;;
39772;SDS011;25451;51.960;6.250;2022-07-17T13:56:59;1.67;;;0.80;;
39772;SDS011;25451;51.960;6.250;2022-07-17T13:59:25;3.43;;;0.77;;
39772;SDS011;25451;51.960;6.250;2022-07-17T14:01:51;2.10;;;0.80;;
39772;SDS011;25451;51.960;6.250;2022-07-17T14:04:16;2.03;;;0.70;;
39772;SDS011;25451;51.960;6.250;2022-07-17T14:06:41;2.60;;;0.70;;
39772;SDS011;25451;51.960;6.250;2022-07-17T14:09:06;2.47;;;0.80;;
39772;SDS011;25451;51.960;6.250;2022-07-17T14:11:32;2.65;;;0.93;;
39772;SDS011;25451;51.960;6.250;2022-07-17T14:14:00;2.58;;;0.80;;
39772;SDS011;25451;51.960;6.250;2022-07-17T14:16:25;5.00;;;0.90;;
39772;SDS011;25451;51.960;6.250;2022-07-17T14:18:51;2.88;;;1.00;;
39772;SDS011;25451;51.960;6.250;2022-07-17T14:21:23;2.40;;;0.82;;
39772;SDS011;25451;51.960;6.250;2022-07-17T14:23:49;2.33;;;0.80;;
39772;SDS011;25451;51.960;6.250;2022-07-17T14:26:15;3.03;;;1.10;;
39772;SDS011;25451;51.960;6.250;2022-07-17T14:28:40;2.17;;;0.70;;
39772;SDS011;25451;51.960;6.250;2022-07-17T14:31:05;2.77;;;0.77;;
39772;SDS011;25451;51.960;6.250;2022-07-17T14:33:30;2.67;;;0.80;;
39772;SDS011;25451;51.960;6.250;2022-07-17T14:35:56;2.53;;;0.80;;
39772;SDS011;25451;51.960;6.250;2022-07-17T14:38:21;2.93;;;0.80;;
39772;SDS011;25451;51.960;6.250;2022-07-17T14:40:46;4.10;;;1.30;;
39772;SDS011;25451;51.960;6.250;2022-07-17T14:43:12;2.83;;;0.93;;
39772;SDS011;25451;51.960;6.250;2022-07-17T14:45:37;1.40;;;0.80;;
39772;SDS011;25451;51.960;6.250;2022-07-17T14:48:02;2.60;;;0.90;;
39772;SDS011;25451;51.960;6.250;2022-07-17T14:50:28;1.40;;;0.70;;
39772;SDS011;25451;51.960;6.250;2022-07-17T14:52:53;2.33;;;0.90;;
39772;SDS011;25451;51.960;6.250;2022-07-17T14:55:18;2.78;;;1.00;;
39772;SDS011;25451;51.960;6.250;2022-07-17T14:57:44;1.80;;;0.87;;
39772;SDS011;25451;51.960;6.250;2022-07-17T15:00:09;2.83;;;0.90;;
39772;SDS011;25451;51.960;6.250;2022-07-17T15:02:35;3.13;;;1.00;;
39772;SDS011;25451;51.960;6.250;2022-07-17T15:05:00;3.07;;;1.03;;
39772;SDS011;25451;51.960;6.250;2022-07-17T15:07:25;3.08;;;1.10;;
39772;SDS011;25451;51.960;6.250;2022-07-17T15:09:51;2.33;;;1.00;;